Terminal Aerodrome Forecast
Issued by NWS

Home | Current Version | Previous Version | Text Only | Print | Product List | Glossary On
Versions: 1 2 3 4 5 6 7 8 9 10 11 12 13 14 15 16 17 18 19
000
FTUS43 KILX 030500
TAFCMI
TAF
KCMI 030537Z 0306/0406 21005KT P6SM SCT250
     FM030900 VRB03KT 4SM BR SKC
      TEMPO 0310/0312 2SM BR SCT005
     FM031500 17007KT P6SM SCT035
     FM040000 17005KT P6SM SKC=

USA.gov is the U.S. government's official web portal to all federal, state and local government web resources and services.